Shingle Springs, California
Current Conditions -  °F | °C
As of 12:35 PM on Tuesday 21 Oct 2014 (Local Time) from KPVF Reporting Station
Clear Clear  
Wind Chill: 59°   Ceiling: Unl
Heat Index: 59°   Visibility: 10mi
Dew Point: 36°   Wind: 7mph
Humidity: 42%   Direction: 300°WNW
Pressure: 30.09"   Gusts: NA
Location:  38.67°N, 120.94°W
Report Text: KPVF 211935Z AUTO 30006KT 10SM CLR 15/02 A3009 RMK AO1
Loading
Personal Weather Stations






























Interactive Weather Map
Tropical Storm Tracking
New forecast layout! Learn more

10-Day Weather Forecast

Advertisements
Track Severe Weather on mobile